This is the latest recevied weather packets stored in our database for station/object SQ2CDE-4. If no packets are shown the sender has not sent any weather packets the latest 10 day(s).
| Time | Temp. | Humidity | Pressure | Rain* | Wind** | Luminosity | Snow |
|---|---|---|---|---|---|---|---|
| 1777676246 | 7.78° C | 71% | 1024 hPa | - | - | - | - |
| 1777675643 | 7.78° C | 71% | 1024 hPa | - | - | - | - |
| 1777675040 | 7.78° C | 71% | 1024 hPa | - | - | - | - |
| 1777674438 | 8.89° C | 76% | 1024 hPa | - | - | - | - |
| 1777673834 | 8.89° C | 76% | 1024 hPa | - | - | - | - |
| 1777672628 | 8.89° C | 76% | 1024 hPa | - | - | - | - |
| 1777672025 | 8.89° C | 76% | 1024 hPa | - | - | - | - |
| 1777670819 | 10° C | 76% | 1024 hPa | - | - | - | - |
| 1777670216 | 10° C | 76% | 1024 hPa | - | - | - | - |
| 1777669613 | 10° C | 76% | 1024 hPa | - | - | - | - |
| 1777669010 | 10° C | 76% | 1024 hPa | - | - | - | - |
| 1777668407 | 10° C | 76% | 1024 hPa | - | - | - | - |
| 1777667804 | 10° C | 76% | 1024 hPa | - | - | - | - |
| 1777667201 | 11.11° C | 66% | 1025 hPa | - | - | - | - |
| 1777666597 | 11.11° C | 66% | 1025 hPa | - | - | - | - |
| 1777665994 | 11.11° C | 66% | 1025 hPa | - | - | - | - |
| 1777665391 | 12.22° C | 67% | 1025 hPa | - | - | - | - |
| 1777664788 | 12.22° C | 67% | 1025 hPa | - | - | - | - |
| 1777650133 | 20° C | 37% | 1024 hPa | - | - | - | - |
| 1777643896 | 18.89° C | 40% | 1025 hPa | - | - | - | - |
| 1777643293 | 18.89° C | 40% | 1025 hPa | - | - | - | - |
| 1777642690 | 18.89° C | 40% | 1025 hPa | - | - | - | - |
| 1777642085 | 20° C | 40% | 1026 hPa | - | - | - | - |
| 1777641483 | 20° C | 40% | 1026 hPa | - | - | - | - |
| 1777640880 | 20° C | 40% | 1026 hPa | - | - | - | - |
* Rain since midnight (hover to see other rain measurements)
** Current wind speed in m/s (hover to see current wind gust speed)